sensor_id;sensor_type;location;lat;lon;timestamp;pressure;altitude;pressure_sealevel;temperature;humidity
21658;BME280;10990;48.174;9.782;2024-03-08T00:01:03;93862.66;;;0.62;100.00
21658;BME280;10990;48.174;9.782;2024-03-08T00:03:29;93865.41;;;0.60;100.00
21658;BME280;10990;48.174;9.782;2024-03-08T00:05:55;93868.41;;;0.56;100.00
21658;BME280;10990;48.174;9.782;2024-03-08T00:08:21;93872.09;;;0.53;100.00
21658;BME280;10990;48.174;9.782;2024-03-08T00:10:49;93873.31;;;0.49;100.00
21658;BME280;10990;48.174;9.782;2024-03-08T00:13:15;93865.09;;;0.44;100.00
21658;BME280;10990;48.174;9.782;2024-03-08T00:15:41;93869.47;;;0.43;100.00
21658;BME280;10990;48.174;9.782;2024-03-08T00:18:07;93865.34;;;0.41;100.00
21658;BME280;10990;48.174;9.782;2024-03-08T00:20:33;93886.16;;;0.41;100.00
21658;BME280;10990;48.174;9.782;2024-03-08T00:22:59;93886.44;;;0.38;100.00
21658;BME280;10990;48.174;9.782;2024-03-08T00:25:25;93885.59;;;0.37;100.00
21658;BME280;10990;48.174;9.782;2024-03-08T00:27:53;93889.16;;;0.36;100.00
21658;BME280;10990;48.174;9.782;2024-03-08T00:30:19;93892.31;;;0.40;100.00
21658;BME280;10990;48.174;9.782;2024-03-08T00:32:45;93888.47;;;0.34;100.00
21658;BME280;10990;48.174;9.782;2024-03-08T00:35:11;93889.81;;;0.29;100.00
21658;BME280;10990;48.174;9.782;2024-03-08T00:37:36;93885.28;;;0.21;100.00
21658;BME280;10990;48.174;9.782;2024-03-08T00:40:03;93882.22;;;0.16;100.00
21658;BME280;10990;48.174;9.782;2024-03-08T00:42:29;93884.97;;;0.14;100.00
21658;BME280;10990;48.174;9.782;2024-03-08T00:44:57;93891.94;;;0.14;100.00
21658;BME280;10990;48.174;9.782;2024-03-08T00:47:23;93886.44;;;0.07;100.00
21658;BME280;10990;48.174;9.782;2024-03-08T00:49:49;93886.16;;;0.01;100.00
21658;BME280;10990;48.174;9.782;2024-03-08T00:52:15;93882.41;;;-0.07;100.00
21658;BME280;10990;48.174;9.782;2024-03-08T00:54:41;93880.06;;;-0.10;100.00
21658;BME280;10990;48.174;9.782;2024-03-08T00:57:10;93877.72;;;-0.13;100.00
21658;BME280;10990;48.174;9.782;2024-03-08T00:59:37;93880.44;;;-0.14;100.00
21658;BME280;10990;48.174;9.782;2024-03-08T01:02:06;93878.81;;;-0.15;100.00
21658;BME280;10990;48.174;9.782;2024-03-08T01:04:32;93876.34;;;-0.17;100.00
21658;BME280;10990;48.174;9.782;2024-03-08T01:06:58;93879.31;;;-0.21;100.00
21658;BME280;10990;48.174;9.782;2024-03-08T01:09:25;93872.63;;;-0.24;100.00
21658;BME280;10990;48.174;9.782;2024-03-08T01:11:51;93872.97;;;-0.29;100.00
21658;BME280;10990;48.174;9.782;2024-03-08T01:14:17;93870.38;;;-0.29;100.00
21658;BME280;10990;48.174;9.782;2024-03-08T01:16:42;93866.41;;;-0.33;100.00
21658;BME280;10990;48.174;9.782;2024-03-08T01:19:11;93868.88;;;-0.31;100.00
21658;BME280;10990;48.174;9.782;2024-03-08T01:21:37;93858.75;;;-0.34;100.00
21658;BME280;10990;48.174;9.782;2024-03-08T01:24:03;93855.56;;;-0.38;100.00
21658;BME280;10990;48.174;9.782;2024-03-08T01:26:29;93848.75;;;-0.39;100.00
21658;BME280;10990;48.174;9.782;2024-03-08T01:28:55;93850.66;;;-0.41;100.00
21658;BME280;10990;48.174;9.782;2024-03-08T01:31:21;93844.06;;;-0.45;100.00
21658;BME280;10990;48.174;9.782;2024-03-08T01:33:46;93847.75;;;-0.48;100.00
21658;BME280;10990;48.174;9.782;2024-03-08T01:36:15;93841.34;;;-0.43;100.00
21658;BME280;10990;48.174;9.782;2024-03-08T01:38:41;93829.31;;;-0.44;100.00
21658;BME280;10990;48.174;9.782;2024-03-08T01:41:06;93836.69;;;-0.40;100.00
21658;BME280;10990;48.174;9.782;2024-03-08T01:43:32;93827.00;;;-0.38;100.00
21658;BME280;10990;48.174;9.782;2024-03-08T01:45:58;93824.03;;;-0.33;100.00
21658;BME280;10990;48.174;9.782;2024-03-08T01:48:25;93817.59;;;-0.39;100.00
21658;BME280;10990;48.174;9.782;2024-03-08T01:50:52;93816.88;;;-0.41;100.00
21658;BME280;10990;48.174;9.782;2024-03-08T01:53:22;93817.72;;;-0.40;100.00
21658;BME280;10990;48.174;9.782;2024-03-08T01:55:48;93813.31;;;-0.40;100.00
21658;BME280;10990;48.174;9.782;2024-03-08T01:58:15;93813.59;;;-0.43;100.00
21658;BME280;10990;48.174;9.782;2024-03-08T02:00:42;93796.50;;;-0.46;100.00
21658;BME280;10990;48.174;9.782;2024-03-08T02:03:09;93800.16;;;-0.48;100.00
21658;BME280;10990;48.174;9.782;2024-03-08T02:05:35;93795.81;;;-0.48;100.00
21658;BME280;10990;48.174;9.782;2024-03-08T02:08:01;93789.66;;;-0.47;100.00
21658;BME280;10990;48.174;9.782;2024-03-08T02:10:30;93785.84;;;-0.42;100.00
21658;BME280;10990;48.174;9.782;2024-03-08T02:12:56;93779.84;;;-0.43;100.00
21658;BME280;10990;48.174;9.782;2024-03-08T02:15:22;93778.81;;;-0.31;100.00
21658;BME280;10990;48.174;9.782;2024-03-08T02:17:47;93774.56;;;-0.32;100.00
21658;BME280;10990;48.174;9.782;2024-03-08T02:20:13;93765.56;;;-0.28;100.00
21658;BME280;10990;48.174;9.782;2024-03-08T02:22:42;93758.44;;;-0.26;100.00
21658;BME280;10990;48.174;9.782;2024-03-08T02:25:08;93757.25;;;-0.21;100.00
21658;BME280;10990;48.174;9.782;2024-03-08T02:27:34;93750.53;;;-0.14;100.00
21658;BME280;10990;48.174;9.782;2024-03-08T02:30:00;93744.16;;;-0.10;100.00
21658;BME280;10990;48.174;9.782;2024-03-08T02:32:26;93748.25;;;-0.08;100.00
21658;BME280;10990;48.174;9.782;2024-03-08T02:34:56;93736.91;;;-0.07;100.00
21658;BME280;10990;48.174;9.782;2024-03-08T02:37:22;93732.94;;;-0.01;100.00
21658;BME280;10990;48.174;9.782;2024-03-08T02:39:50;93727.09;;;0.07;100.00
21658;BME280;10990;48.174;9.782;2024-03-08T02:42:16;93722.44;;;0.10;100.00
21658;BME280;10990;48.174;9.782;2024-03-08T02:44:42;93720.66;;;0.11;100.00
21658;BME280;10990;48.174;9.782;2024-03-08T02:47:08;93722.59;;;0.18;100.00
21658;BME280;10990;48.174;9.782;2024-03-08T02:49:34;93731.75;;;0.22;100.00
21658;BME280;10990;48.174;9.782;2024-03-08T02:52:00;93722.59;;;0.18;100.00
21658;BME280;10990;48.174;9.782;2024-03-08T02:54:26;93740.09;;;0.16;100.00
21658;BME280;10990;48.174;9.782;2024-03-08T02:56:54;93733.00;;;0.18;100.00
21658;BME280;10990;48.174;9.782;2024-03-08T02:59:20;93736.00;;;0.24;100.00
21658;BME280;10990;48.174;9.782;2024-03-08T03:01:46;93735.88;;;0.25;100.00
21658;BME280;10990;48.174;9.782;2024-03-08T03:04:12;93733.84;;;0.29;100.00
21658;BME280;10990;48.174;9.782;2024-03-08T03:06:37;93726.56;;;0.22;100.00
21658;BME280;10990;48.174;9.782;2024-03-08T03:09:03;93733.41;;;0.24;100.00
21658;BME280;10990;48.174;9.782;2024-03-08T03:11:29;93730.66;;;0.25;100.00
21658;BME280;10990;48.174;9.782;2024-03-08T03:13:57;93726.56;;;0.22;100.00
21658;BME280;10990;48.174;9.782;2024-03-08T03:16:23;93730.53;;;0.27;100.00
21658;BME280;10990;48.174;9.782;2024-03-08T03:18:49;93732.44;;;0.25;100.00
21658;BME280;10990;48.174;9.782;2024-03-08T03:21:15;93724.38;;;0.28;100.00
21658;BME280;10990;48.174;9.782;2024-03-08T03:23:41;93725.19;;;0.28;100.00
21658;BME280;10990;48.174;9.782;2024-03-08T03:26:07;93730.94;;;0.22;100.00
21658;BME280;10990;48.174;9.782;2024-03-08T03:28:32;93724.38;;;0.28;100.00
21658;BME280;10990;48.174;9.782;2024-03-08T03:31:01;93731.25;;;0.29;100.00
21658;BME280;10990;48.174;9.782;2024-03-08T03:33:27;93720.97;;;0.27;100.00
21658;BME280;10990;48.174;9.782;2024-03-08T03:35:53;93714.66;;;0.30;100.00
21658;BME280;10990;48.174;9.782;2024-03-08T03:38:19;93714.41;;;0.33;100.00
21658;BME280;10990;48.174;9.782;2024-03-08T03:40:44;93712.88;;;0.30;100.00
21658;BME280;10990;48.174;9.782;2024-03-08T03:43:10;93723.13;;;0.22;100.00
21658;BME280;10990;48.174;9.782;2024-03-08T03:45:36;93716.16;;;0.22;100.00
21658;BME280;10990;48.174;9.782;2024-03-08T03:48:07;93717.00;;;0.33;100.00
21658;BME280;10990;48.174;9.782;2024-03-08T03:50:33;93717.81;;;0.24;100.00
21658;BME280;10990;48.174;9.782;2024-03-08T03:52:59;93715.75;;;0.17;100.00
21658;BME280;10990;48.174;9.782;2024-03-08T03:55:25;93713.97;;;0.18;100.00
21658;BME280;10990;48.174;9.782;2024-03-08T03:57:51;93708.22;;;0.24;100.00
21658;BME280;10990;48.174;9.782;2024-03-08T04:00:17;93700.44;;;0.24;100.00
21658;BME280;10990;48.174;9.782;2024-03-08T04:02:43;93711.53;;;0.26;100.00
21658;BME280;10990;48.174;9.782;2024-03-08T04:05:12;93708.22;;;0.34;100.00
21658;BME280;10990;48.174;9.782;2024-03-08T04:07:38;93703.03;;;0.24;100.00
21658;BME280;10990;48.174;9.782;2024-03-08T04:10:06;93704.28;;;0.20;100.00
21658;BME280;10990;48.174;9.782;2024-03-08T04:12:32;93712.75;;;0.12;100.00
21658;BME280;10990;48.174;9.782;2024-03-08T04:14:58;93711.34;;;0.08;100.00
21658;BME280;10990;48.174;9.782;2024-03-08T04:17:24;93710.25;;;0.11;100.00
21658;BME280;10990;48.174;9.782;2024-03-08T04:19:50;93714.53;;;0.12;100.00
21658;BME280;10990;48.174;9.782;2024-03-08T04:22:19;93710.13;;;0.12;100.00
21658;BME280;10990;48.174;9.782;2024-03-08T04:24:45;93705.22;;;0.19;100.00
21658;BME280;10990;48.174;9.782;2024-03-08T04:27:12;93705.22;;;0.19;100.00
21658;BME280;10990;48.174;9.782;2024-03-08T04:29:38;93710.00;;;0.14;100.00
21658;BME280;10990;48.174;9.782;2024-03-08T04:32:05;93706.84;;;0.01;100.00
21658;BME280;10990;48.174;9.782;2024-03-08T04:34:31;93705.75;;;0.13;100.00
21658;BME280;10990;48.174;9.782;2024-03-08T04:36:57;93703.16;;;0.03;100.00
21658;BME280;10990;48.174;9.782;2024-03-08T04:39:26;93702.03;;;0.06;100.00
21658;BME280;10990;48.174;9.782;2024-03-08T04:41:52;93695.47;;;0.11;100.00
21658;BME280;10990;48.174;9.782;2024-03-08T04:44:18;93696.34;;;0.12;100.00
21658;BME280;10990;48.174;9.782;2024-03-08T04:46:44;93696.34;;;0.12;100.00
21658;BME280;10990;48.174;9.782;2024-03-08T04:49:10;93684.97;;;0.13;100.00
21658;BME280;10990;48.174;9.782;2024-03-08T04:51:36;93681.56;;;0.12;100.00
21658;BME280;10990;48.174;9.782;2024-03-08T04:54:02;93683.72;;;0.17;100.00
21658;BME280;10990;48.174;9.782;2024-03-08T04:56:30;93693.56;;;0.13;100.00
21658;BME280;10990;48.174;9.782;2024-03-08T04:58:56;93690.97;;;0.13;100.00
21658;BME280;10990;48.174;9.782;2024-03-08T05:01:22;93689.50;;;0.20;100.00
21658;BME280;10990;48.174;9.782;2024-03-08T05:03:48;93685.66;;;0.15;100.00
21658;BME280;10990;48.174;9.782;2024-03-08T05:06:14;93687.84;;;0.19;100.00
21658;BME280;10990;48.174;9.782;2024-03-08T05:08:40;93684.84;;;0.24;100.00
21658;BME280;10990;48.174;9.782;2024-03-08T05:11:06;93684.28;;;0.20;100.00
21658;BME280;10990;48.174;9.782;2024-03-08T05:13:35;93673.59;;;0.14;100.00
21658;BME280;10990;48.174;9.782;2024-03-08T05:16:00;93678.66;;;0.25;100.00
21658;BME280;10990;48.174;9.782;2024-03-08T05:18:26;93683.22;;;0.23;100.00
21658;BME280;10990;48.174;9.782;2024-03-08T05:20:52;93674.72;;;0.21;100.00
21658;BME280;10990;48.174;9.782;2024-03-08T05:23:18;93675.13;;;0.16;100.00
21658;BME280;10990;48.174;9.782;2024-03-08T05:25:44;93684.69;;;0.16;100.00
21658;BME280;10990;48.174;9.782;2024-03-08T05:28:10;93684.28;;;0.11;100.00
21658;BME280;10990;48.174;9.782;2024-03-08T05:30:40;93679.06;;;0.11;100.00
21658;BME280;10990;48.174;9.782;2024-03-08T05:33:06;93677.56;;;0.08;100.00
21658;BME280;10990;48.174;9.782;2024-03-08T05:35:32;93683.44;;;0.10;100.00
21658;BME280;10990;48.174;9.782;2024-03-08T05:37:58;93682.75;;;0.08;100.00
21658;BME280;10990;48.174;9.782;2024-03-08T05:40:24;93672.63;;;0.05;100.00
21658;BME280;10990;48.174;9.782;2024-03-08T05:42:50;93677.84;;;0.05;100.00
21658;BME280;10990;48.174;9.782;2024-03-08T05:45:16;93681.25;;;0.06;100.00
21658;BME280;10990;48.174;9.782;2024-03-08T05:47:45;93682.38;;;0.13;100.00
21658;BME280;10990;48.174;9.782;2024-03-08T05:50:11;93677.16;;;0.13;100.00
21658;BME280;10990;48.174;9.782;2024-03-08T05:52:37;93680.19;;;0.28;100.00
21658;BME280;10990;48.174;9.782;2024-03-08T05:55:03;93679.91;;;0.31;100.00
21658;BME280;10990;48.174;9.782;2024-03-08T05:57:30;93677.31;;;0.21;100.00
21658;BME280;10990;48.174;9.782;2024-03-08T05:59:55;93684.56;;;0.17;100.00
21658;BME280;10990;48.174;9.782;2024-03-08T06:02:21;93677.28;;;0.11;100.00
21658;BME280;10990;48.174;9.782;2024-03-08T06:04:50;93675.00;;;0.18;100.00
21658;BME280;10990;48.174;9.782;2024-03-08T06:07:16;93687.56;;;0.13;100.00
21658;BME280;10990;48.174;9.782;2024-03-08T06:09:42;93690.28;;;0.02;100.00
21658;BME280;10990;48.174;9.782;2024-03-08T06:12:08;93693.44;;;0.05;100.00
21658;BME280;10990;48.174;9.782;2024-03-08T06:14:34;93685.38;;;-0.02;100.00
21658;BME280;10990;48.174;9.782;2024-03-08T06:17:00;93688.06;;;-0.03;100.00
21658;BME280;10990;48.174;9.782;2024-03-08T06:19:26;93683.56;;;-0.01;100.00
21658;BME280;10990;48.174;9.782;2024-03-08T06:21:54;93681.41;;;-0.06;100.00
21658;BME280;10990;48.174;9.782;2024-03-08T06:24:20;93683.31;;;0.02;100.00
21658;BME280;10990;48.174;9.782;2024-03-08T06:26:46;93673.34;;;-0.03;100.00
21658;BME280;10990;48.174;9.782;2024-03-08T06:29:12;93687.81;;;-0.10;100.00
21658;BME280;10990;48.174;9.782;2024-03-08T06:31:38;93680.97;;;-0.01;100.00
21658;BME280;10990;48.174;9.782;2024-03-08T06:34:04;93687.00;;;-0.10;100.00
21658;BME280;10990;48.174;9.782;2024-03-08T06:36:30;93687.09;;;-0.12;100.00
21658;BME280;10990;48.174;9.782;2024-03-08T06:38:59;93694.25;;;-0.04;100.00
21658;BME280;10990;48.174;9.782;2024-03-08T06:41:25;93689.72;;;-0.12;100.00
21658;BME280;10990;48.174;9.782;2024-03-08T06:43:50;93696.41;;;-0.09;100.00
21658;BME280;10990;48.174;9.782;2024-03-08T06:46:17;93693.53;;;-0.16;100.00
21658;BME280;10990;48.174;9.782;2024-03-08T06:48:43;93697.09;;;-0.17;100.00
21658;BME280;10990;48.174;9.782;2024-03-08T06:51:09;93688.19;;;-0.14;100.00
21658;BME280;10990;48.174;9.782;2024-03-08T06:53:35;93693.28;;;-0.13;100.00
21658;BME280;10990;48.174;9.782;2024-03-08T06:56:04;93697.91;;;-0.16;100.00
21658;BME280;10990;48.174;9.782;2024-03-08T06:58:30;93695.59;;;-0.19;100.00
21658;BME280;10990;48.174;9.782;2024-03-08T07:00:56;93691.09;;;-0.08;100.00
21658;BME280;10990;48.174;9.782;2024-03-08T07:03:22;93694.19;;;-0.24;100.00
21658;BME280;10990;48.174;9.782;2024-03-08T07:05:48;93694.06;;;-0.22;100.00
21658;BME280;10990;48.174;9.782;2024-03-08T07:08:14;93693.66;;;-0.17;100.00
21658;BME280;10990;48.174;9.782;2024-03-08T07:10:40;93699.56;;;-0.15;100.00
21658;BME280;10990;48.174;9.782;2024-03-08T07:13:08;93693.00;;;-0.10;100.00
21658;BME280;10990;48.174;9.782;2024-03-08T07:15:34;93695.47;;;-0.08;100.00
21658;BME280;10990;48.174;9.782;2024-03-08T07:18:00;93689.19;;;-0.06;100.00
21658;BME280;10990;48.174;9.782;2024-03-08T07:20:26;93694.25;;;-0.14;100.00
21658;BME280;10990;48.174;9.782;2024-03-08T07:22:52;93686.19;;;-0.11;100.00
21658;BME280;10990;48.174;9.782;2024-03-08T07:25:19;93681.25;;;-0.04;100.00
21658;BME280;10990;48.174;9.782;2024-03-08T07:27:45;93681.09;;;-0.12;100.00
21658;BME280;10990;48.174;9.782;2024-03-08T07:30:14;93677.41;;;-0.10;100.00
21658;BME280;10990;48.174;9.782;2024-03-08T07:32:40;93686.59;;;-0.06;100.00
21658;BME280;10990;48.174;9.782;2024-03-08T07:35:06;93682.34;;;-0.16;100.00
21658;BME280;10990;48.174;9.782;2024-03-08T07:37:32;93679.88;;;-0.08;100.00
21658;BME280;10990;48.174;9.782;2024-03-08T07:39:58;93672.09;;;-0.08;100.00
21658;BME280;10990;48.174;9.782;2024-03-08T07:42:24;93680.00;;;-0.10;100.00
21658;BME280;10990;48.174;9.782;2024-03-08T07:44:50;93680.84;;;0.01;100.00
21658;BME280;10990;48.174;9.782;2024-03-08T07:47:19;93679.31;;;-0.12;100.00
21658;BME280;10990;48.174;9.782;2024-03-08T07:49:45;93682.06;;;-0.04;100.00
21658;BME280;10990;48.174;9.782;2024-03-08T07:52:11;93682.06;;;-0.04;100.00
21658;BME280;10990;48.174;9.782;2024-03-08T07:54:37;93674.69;;;-0.08;100.00
21658;BME280;10990;48.174;9.782;2024-03-08T07:57:03;93673.47;;;-0.04;100.00
21658;BME280;10990;48.174;9.782;2024-03-08T07:59:29;93669.78;;;-0.02;100.00
21658;BME280;10990;48.174;9.782;2024-03-08T08:01:54;93669.06;;;-0.04;100.00
21658;BME280;10990;48.174;9.782;2024-03-08T08:04:23;93674.97;;;-0.11;100.00
21658;BME280;10990;48.174;9.782;2024-03-08T08:06:49;93675.94;;;-0.03;100.00
21658;BME280;10990;48.174;9.782;2024-03-08T08:09:15;93662.78;;;-0.01;100.00
21658;BME280;10990;48.174;9.782;2024-03-08T08:11:41;93664.19;;;0.03;100.00
21658;BME280;10990;48.174;9.782;2024-03-08T08:14:07;93667.75;;;0.12;100.00
21658;BME280;10990;48.174;9.782;2024-03-08T08:16:33;93660.22;;;0.09;100.00
21658;BME280;10990;48.174;9.782;2024-03-08T08:18:59;93666.34;;;-0.02;100.00
21658;BME280;10990;48.174;9.782;2024-03-08T08:21:28;93663.59;;;-0.10;100.00
21658;BME280;10990;48.174;9.782;2024-03-08T08:23:54;93666.63;;;0.05;100.00
21658;BME280;10990;48.174;9.782;2024-03-08T08:26:20;93662.94;;;0.07;100.00
21658;BME280;10990;48.174;9.782;2024-03-08T08:28:46;93659.53;;;0.07;100.00
21658;BME280;10990;48.174;9.782;2024-03-08T08:31:12;93661.44;;;0.05;100.00
21658;BME280;10990;48.174;9.782;2024-03-08T08:33:38;93660.47;;;0.06;100.00
21658;BME280;10990;48.174;9.782;2024-03-08T08:36:05;93665.53;;;-0.03;100.00
21658;BME280;10990;48.174;9.782;2024-03-08T08:38:34;93653.78;;;0.13;100.00
21658;BME280;10990;48.174;9.782;2024-03-08T08:41:00;93657.75;;;-0.03;100.00
21658;BME280;10990;48.174;9.782;2024-03-08T08:43:26;93652.94;;;0.03;100.00
21658;BME280;10990;48.174;9.782;2024-03-08T08:45:52;93648.03;;;0.19;100.00
21658;BME280;10990;48.174;9.782;2024-03-08T08:48:18;93659.53;;;0.07;100.00
21658;BME280;10990;48.174;9.782;2024-03-08T08:50:44;93653.91;;;0.02;100.00
21658;BME280;10990;48.174;9.782;2024-03-08T08:53:10;93656.38;;;0.13;100.00
21658;BME280;10990;48.174;9.782;2024-03-08T08:55:39;93660.75;;;0.12;100.00
21658;BME280;10990;48.174;9.782;2024-03-08T08:58:06;93652.69;;;0.15;100.00
21658;BME280;10990;48.174;9.782;2024-03-08T09:00:32;93652.97;;;0.12;100.00
21658;BME280;10990;48.174;9.782;2024-03-08T09:02:58;93656.38;;;0.13;100.00
21658;BME280;10990;48.174;9.782;2024-03-08T09:05:24;93653.50;;;0.06;100.00
21658;BME280;10990;48.174;9.782;2024-03-08T09:07:50;93648.69;;;0.11;100.00
21658;BME280;10990;48.174;9.782;2024-03-08T09:10:16;93658.81;;;0.05;100.00
21658;BME280;10990;48.174;9.782;2024-03-08T09:12:45;93651.44;;;0.19;100.00
21658;BME280;10990;48.174;9.782;2024-03-08T09:15:11;93651.88;;;0.25;100.00
21658;BME280;10990;48.174;9.782;2024-03-08T09:17:37;93652.56;;;0.27;100.00
21658;BME280;10990;48.174;9.782;2024-03-08T09:20:04;93643.09;;;0.16;100.00
21658;BME280;10990;48.174;9.782;2024-03-08T09:22:30;93645.44;;;0.29;100.00
21658;BME280;10990;48.174;9.782;2024-03-08T09:24:56;93647.22;;;0.18;100.00
21658;BME280;10990;48.174;9.782;2024-03-08T09:27:22;93636.66;;;0.49;100.00
21658;BME280;10990;48.174;9.782;2024-03-08T09:29:51;93631.31;;;0.51;100.00
21658;BME280;10990;48.174;9.782;2024-03-08T09:32:17;93629.94;;;0.66;100.00
21658;BME280;10990;48.174;9.782;2024-03-08T09:34:43;93614.31;;;0.66;100.00
21658;BME280;10990;48.174;9.782;2024-03-08T09:37:09;93618.00;;;0.73;100.00
21658;BME280;10990;48.174;9.782;2024-03-08T09:39:34;93618.00;;;0.73;100.00
21658;BME280;10990;48.174;9.782;2024-03-08T09:42:01;93617.22;;;0.53;100.00
21658;BME280;10990;48.174;9.782;2024-03-08T09:44:27;93616.28;;;0.54;100.00
21658;BME280;10990;48.174;9.782;2024-03-08T09:46:55;93619.38;;;0.67;100.00
21658;BME280;10990;48.174;9.782;2024-03-08T09:49:22;93616.41;;;0.62;100.00
21658;BME280;10990;48.174;9.782;2024-03-08T09:51:49;93611.91;;;1.02;100.00
21658;BME280;10990;48.174;9.782;2024-03-08T09:54:15;93604.16;;;0.82;100.00
21658;BME280;10990;48.174;9.782;2024-03-08T09:56:43;93598.09;;;0.92;100.00
21658;BME280;10990;48.174;9.782;2024-03-08T09:59:09;93596.81;;;0.68;100.00
21658;BME280;10990;48.174;9.782;2024-03-08T10:01:35;93595.13;;;0.77;100.00
21658;BME280;10990;48.174;9.782;2024-03-08T10:04:04;93588.78;;;0.89;100.00
21658;BME280;10990;48.174;9.782;2024-03-08T10:06:30;93589.47;;;0.91;100.00
21658;BME280;10990;48.174;9.782;2024-03-08T10:08:56;93583.94;;;1.04;100.00
21658;BME280;10990;48.174;9.782;2024-03-08T10:11:22;93590.22;;;0.64;100.00
21658;BME280;10990;48.174;9.782;2024-03-08T10:13:50;93576.25;;;0.75;100.00
21658;BME280;10990;48.174;9.782;2024-03-08T10:16:16;93565.25;;;0.91;100.00
21658;BME280;10990;48.174;9.782;2024-03-08T10:18:42;93573.75;;;0.83;100.00
21658;BME280;10990;48.174;9.782;2024-03-08T10:21:11;93573.59;;;0.84;100.00
21658;BME280;10990;48.174;9.782;2024-03-08T10:23:37;93572.94;;;0.82;100.00
21658;BME280;10990;48.174;9.782;2024-03-08T10:26:10;93564.63;;;0.69;100.00
21658;BME280;10990;48.174;9.782;2024-03-08T10:28:37;93572.94;;;0.73;100.00
21658;BME280;10990;48.174;9.782;2024-03-08T10:31:03;93565.84;;;0.75;100.00
21658;BME280;10990;48.174;9.782;2024-03-08T10:33:29;93568.25;;;0.86;100.00
21658;BME280;10990;48.174;9.782;2024-03-08T10:35:55;93561.91;;;0.98;100.00
21658;BME280;10990;48.174;9.782;2024-03-08T10:38:24;93560.56;;;0.94;100.00
21658;BME280;10990;48.174;9.782;2024-03-08T10:40:53;93547.00;;;1.18;100.00
21658;BME280;10990;48.174;9.782;2024-03-08T10:43:23;93542.19;;;1.23;100.00
21658;BME280;10990;48.174;9.782;2024-03-08T10:45:49;93547.69;;;1.48;100.00
21658;BME280;10990;48.174;9.782;2024-03-08T10:48:27;93537.56;;;1.45;100.00
21658;BME280;10990;48.174;9.782;2024-03-08T10:50:54;93535.69;;;1.37;100.00
21658;BME280;10990;48.174;9.782;2024-03-08T10:53:27;93532.88;;;1.48;100.00
21658;BME280;10990;48.174;9.782;2024-03-08T10:55:53;93528.94;;;1.62;100.00
21658;BME280;10990;48.174;9.782;2024-03-08T10:58:22;93536.91;;;1.61;100.00
21658;BME280;10990;48.174;9.782;2024-03-08T11:00:48;93525.94;;;1.57;100.00
21658;BME280;10990;48.174;9.782;2024-03-08T11:03:44;93526.25;;;1.54;100.00
21658;BME280;10990;48.174;9.782;2024-03-08T11:06:15;93509.72;;;1.63;100.00
21658;BME280;10990;48.174;9.782;2024-03-08T11:08:44;93508.25;;;1.78;100.00
21658;BME280;10990;48.174;9.782;2024-03-08T11:11:24;93498.94;;;1.58;100.00
21658;BME280;10990;48.174;9.782;2024-03-08T11:13:50;93502.81;;;1.36;100.00
21658;BME280;10990;48.174;9.782;2024-03-08T11:16:37;93488.84;;;1.55;100.00
21658;BME280;10990;48.174;9.782;2024-03-08T11:19:22;93475.72;;;1.65;100.00
21658;BME280;10990;48.174;9.782;2024-03-08T11:21:57;93464.84;;;1.87;100.00
21658;BME280;10990;48.174;9.782;2024-03-08T11:24:26;93459.63;;;1.87;100.00
21658;BME280;10990;48.174;9.782;2024-03-08T11:26:56;93455.44;;;1.94;100.00
21658;BME280;10990;48.174;9.782;2024-03-08T11:29:36;93433.78;;;2.20;100.00
21658;BME280;10990;48.174;9.782;2024-03-08T11:32:09;93439.94;;;2.19;100.00
21658;BME280;10990;48.174;9.782;2024-03-08T11:34:36;93436.53;;;1.92;100.00
21658;BME280;10990;48.174;9.782;2024-03-08T11:37:04;93435.50;;;1.85;100.00
21658;BME280;10990;48.174;9.782;2024-03-08T11:39:33;93439.13;;;1.92;100.00
21658;BME280;10990;48.174;9.782;2024-03-08T11:42:00;93435.97;;;1.81;100.00
21658;BME280;10990;48.174;9.782;2024-03-08T11:44:27;93436.66;;;2.09;100.00
21658;BME280;10990;48.174;9.782;2024-03-08T11:46:53;93424.75;;;1.88;100.00
21658;BME280;10990;48.174;9.782;2024-03-08T11:49:19;93416.69;;;1.99;100.00
21658;BME280;10990;48.174;9.782;2024-03-08T11:51:45;93393.16;;;2.43;100.00
21658;BME280;10990;48.174;9.782;2024-03-08T11:54:12;93384.66;;;2.41;100.00
21658;BME280;10990;48.174;9.782;2024-03-08T11:56:41;93388.38;;;2.39;100.00
21658;BME280;10990;48.174;9.782;2024-03-08T11:59:11;93378.03;;;2.55;100.00
21658;BME280;10990;48.174;9.782;2024-03-08T12:01:37;93365.75;;;2.47;100.00
21658;BME280;10990;48.174;9.782;2024-03-08T12:04:03;93369.09;;;2.66;100.00
21658;BME280;10990;48.174;9.782;2024-03-08T12:06:36;93344.38;;;2.95;100.00
21658;BME280;10990;48.174;9.782;2024-03-08T12:09:03;93346.50;;;2.99;100.00
21658;BME280;10990;48.174;9.782;2024-03-08T12:11:28;93354.66;;;2.37;100.00
21658;BME280;10990;48.174;9.782;2024-03-08T12:13:59;93343.44;;;2.53;100.00
21658;BME280;10990;48.174;9.782;2024-03-08T12:16:25;93341.31;;;2.49;100.00
21658;BME280;10990;48.174;9.782;2024-03-08T12:18:51;93342.78;;;2.43;100.00
21658;BME280;10990;48.174;9.782;2024-03-08T12:21:18;93328.13;;;2.58;100.00
21658;BME280;10990;48.174;9.782;2024-03-08T12:23:44;93323.44;;;2.70;100.00
21658;BME280;10990;48.174;9.782;2024-03-08T12:26:11;93320.22;;;2.76;100.00
21658;BME280;10990;48.174;9.782;2024-03-08T12:28:38;93321.97;;;2.76;100.00
21658;BME280;10990;48.174;9.782;2024-03-08T12:31:07;93327.63;;;2.46;100.00
21658;BME280;10990;48.174;9.782;2024-03-08T12:33:33;93316.72;;;2.67;100.00
21658;BME280;10990;48.174;9.782;2024-03-08T12:35:59;93313.63;;;2.64;100.00
21658;BME280;10990;48.174;9.782;2024-03-08T12:38:28;93315.72;;;2.52;100.00
21658;BME280;10990;48.174;9.782;2024-03-08T12:40:56;93311.97;;;2.46;100.00
21658;BME280;10990;48.174;9.782;2024-03-08T12:43:23;93292.00;;;3.12;100.00
21658;BME280;10990;48.174;9.782;2024-03-08T12:45:50;93280.72;;;3.53;100.00
21658;BME280;10990;48.174;9.782;2024-03-08T12:48:27;93272.09;;;3.52;100.00
21658;BME280;10990;48.174;9.782;2024-03-08T12:50:54;93278.75;;;3.63;100.00
21658;BME280;10990;48.174;9.782;2024-03-08T12:53:20;93278.63;;;3.40;100.00
21658;BME280;10990;48.174;9.782;2024-03-08T12:55:46;93270.09;;;3.54;100.00